sensor_id;sensor_type;location;lat;lon;timestamp;pressure;altitude;pressure_sealevel;temperature;humidity
71222;BME280;58965;59.324;18.268;2022-09-03T00:00:53;102164.29;;;12.17;22.44
71222;BME280;58965;59.324;18.268;2022-09-03T00:03:19;102167.84;;;12.52;22.49
71222;BME280;58965;59.324;18.268;2022-09-03T00:05:44;102169.57;;;11.83;22.57
71222;BME280;58965;59.324;18.268;2022-09-03T00:08:10;102174.25;;;12.30;22.26
71222;BME280;58965;59.324;18.268;2022-09-03T00:10:35;102175.58;;;12.23;22.47
71222;BME280;58965;59.324;18.268;2022-09-03T00:12:58;102176.34;;;12.38;22.26
71222;BME280;58965;59.324;18.268;2022-09-03T00:15:22;102173.70;;;12.10;22.47
71222;BME280;58965;59.324;18.268;2022-09-03T00:17:51;102172.65;;;12.25;22.49
71222;BME280;58965;59.324;18.268;2022-09-03T00:20:14;102173.22;;;11.91;22.50
71222;BME280;58965;59.324;18.268;2022-09-03T00:22:39;102175.95;;;12.23;22.34
71222;BME280;58965;59.324;18.268;2022-09-03T00:25:03;102175.64;;;12.13;22.47
71222;BME280;58965;59.324;18.268;2022-09-03T00:27:27;102175.17;;;11.91;22.47
71222;BME280;58965;59.324;18.268;2022-09-03T00:29:54;102173.11;;;12.03;22.27
71222;BME280;58965;59.324;18.268;2022-09-03T00:32:20;102170.00;;;12.00;22.27
71222;BME280;58965;59.324;18.268;2022-09-03T00:34:44;102171.25;;;11.75;22.49
71222;BME280;58965;59.324;18.268;2022-09-03T00:37:07;102174.19;;;11.80;22.27
71222;BME280;58965;59.324;18.268;2022-09-03T00:39:31;102178.35;;;11.96;22.44
71222;BME280;58965;59.324;18.268;2022-09-03T00:42:09;102175.88;;;12.12;22.26
71222;BME280;58965;59.324;18.268;2022-09-03T00:44:35;102178.91;;;11.52;22.33
71222;BME280;58965;59.324;18.268;2022-09-03T00:46:52;102179.25;;;12.03;22.21
71222;BME280;58965;59.324;18.268;2022-09-03T00:49:24;102179.20;;;11.20;22.41
71222;BME280;58965;59.324;18.268;2022-09-03T00:51:42;102181.45;;;11.68;22.10
71222;BME280;58965;59.324;18.268;2022-09-03T00:54:07;102182.50;;;11.71;22.25
71222;BME280;58965;59.324;18.268;2022-09-03T00:56:36;102182.88;;;11.89;22.23
71222;BME280;58965;59.324;18.268;2022-09-03T00:59:05;102185.07;;;11.77;22.08
71222;BME280;58965;59.324;18.268;2022-09-03T01:01:20;102188.24;;;12.10;22.13
71222;BME280;58965;59.324;18.268;2022-09-03T01:03:49;102186.69;;;12.07;22.19
71222;BME280;58965;59.324;18.268;2022-09-03T01:06:14;102187.28;;;11.91;22.27
71222;BME280;58965;59.324;18.268;2022-09-03T01:08:42;102188.71;;;11.76;22.32
71222;BME280;58965;59.324;18.268;2022-09-03T01:11:07;102184.98;;;12.20;22.19
71222;BME280;58965;59.324;18.268;2022-09-03T01:13:29;102183.61;;;11.93;22.33
71222;BME280;58965;59.324;18.268;2022-09-03T01:15:57;102184.95;;;12.21;21.92
71222;BME280;58965;59.324;18.268;2022-09-03T01:18:19;102183.62;;;12.39;22.13
71222;BME280;58965;59.324;18.268;2022-09-03T01:20:47;102180.75;;;11.63;22.39
71222;BME280;58965;59.324;18.268;2022-09-03T01:25:51;102175.26;;;12.36;22.54
71222;BME280;58965;59.324;18.268;2022-09-03T01:28:17;102177.15;;;10.96;22.66
71222;BME280;58965;59.324;18.268;2022-09-03T01:30:38;102176.50;;;11.98;22.51
71222;BME280;58965;59.324;18.268;2022-09-03T01:33:02;102178.69;;;11.73;22.51
71222;BME280;58965;59.324;18.268;2022-09-03T01:35:28;102178.22;;;11.74;22.70
71222;BME280;58965;59.324;18.268;2022-09-03T01:38:00;102178.10;;;11.99;22.64
71222;BME280;58965;59.324;18.268;2022-09-03T01:40:20;102177.80;;;11.89;22.54
71222;BME280;58965;59.324;18.268;2022-09-03T01:42:50;102179.22;;;11.37;22.72
71222;BME280;58965;59.324;18.268;2022-09-03T01:45:18;102180.69;;;12.03;22.63
71222;BME280;58965;59.324;18.268;2022-09-03T01:47:45;102180.06;;;12.11;22.52
71222;BME280;58965;59.324;18.268;2022-09-03T01:49:59;102179.43;;;11.97;22.66
71222;BME280;58965;59.324;18.268;2022-09-03T01:52:26;102175.26;;;11.55;22.76
71222;BME280;58965;59.324;18.268;2022-09-03T01:54:51;102174.90;;;11.70;22.83
71222;BME280;58965;59.324;18.268;2022-09-03T01:57:22;102173.22;;;11.64;23.11
71222;BME280;58965;59.324;18.268;2022-09-03T01:59:39;102175.85;;;11.94;22.93
71222;BME280;58965;59.324;18.268;2022-09-03T02:02:02;102176.55;;;11.60;22.79
71222;BME280;58965;59.324;18.268;2022-09-03T02:04:26;102174.79;;;11.84;22.86
71222;BME280;58965;59.324;18.268;2022-09-03T02:06:50;102170.28;;;11.99;22.59
71222;BME280;58965;59.324;18.268;2022-09-03T02:09:15;102171.70;;;12.35;22.78
71222;BME280;58965;59.324;18.268;2022-09-03T02:11:40;102170.79;;;12.24;22.77
71222;BME280;58965;59.324;18.268;2022-09-03T02:14:05;102169.67;;;11.31;23.23
71222;BME280;58965;59.324;18.268;2022-09-03T02:16:32;102172.23;;;11.57;22.99
71222;BME280;58965;59.324;18.268;2022-09-03T02:18:59;102172.33;;;11.80;23.10
71222;BME280;58965;59.324;18.268;2022-09-03T02:21:24;102171.58;;;11.54;23.19
71222;BME280;58965;59.324;18.268;2022-09-03T02:23:46;102174.32;;;11.84;23.17
71222;BME280;58965;59.324;18.268;2022-09-03T02:26:12;102175.31;;;11.49;23.34
71222;BME280;58965;59.324;18.268;2022-09-03T02:28:36;102172.85;;;11.61;23.20
71222;BME280;58965;59.324;18.268;2022-09-03T02:31:01;102171.50;;;11.80;23.25
71222;BME280;58965;59.324;18.268;2022-09-03T02:33:26;102167.18;;;11.91;23.36
71222;BME280;58965;59.324;18.268;2022-09-03T02:35:51;102166.56;;;11.48;23.46
71222;BME280;58965;59.324;18.268;2022-09-03T02:38:19;102166.92;;;11.22;23.63
71222;BME280;58965;59.324;18.268;2022-09-03T02:40:41;102168.44;;;11.35;23.90
71222;BME280;58965;59.324;18.268;2022-09-03T02:43:10;102171.48;;;10.92;23.66
71222;BME280;58965;59.324;18.268;2022-09-03T02:45:31;102169.82;;;11.67;23.92
71222;BME280;58965;59.324;18.268;2022-09-03T02:47:58;102170.14;;;11.41;23.86
71222;BME280;58965;59.324;18.268;2022-09-03T02:50:22;102170.04;;;11.46;23.87
71222;BME280;58965;59.324;18.268;2022-09-03T02:52:47;102171.54;;;11.53;23.87
71222;BME280;58965;59.324;18.268;2022-09-03T02:55:12;102170.91;;;11.38;23.84
71222;BME280;58965;59.324;18.268;2022-09-03T02:57:37;102169.77;;;11.54;23.78
71222;BME280;58965;59.324;18.268;2022-09-03T03:00:03;102164.33;;;11.67;23.89
71222;BME280;58965;59.324;18.268;2022-09-03T03:02:27;102162.78;;;11.68;23.58
71222;BME280;58965;59.324;18.268;2022-09-03T03:04:52;102160.61;;;11.82;23.84
71222;BME280;58965;59.324;18.268;2022-09-03T03:07:17;102160.01;;;11.37;23.85
71222;BME280;58965;59.324;18.268;2022-09-03T03:09:42;102159.93;;;11.92;23.82
71222;BME280;58965;59.324;18.268;2022-09-03T03:12:07;102159.89;;;11.69;23.81
71222;BME280;58965;59.324;18.268;2022-09-03T03:14:32;102165.17;;;11.70;23.66
71222;BME280;58965;59.324;18.268;2022-09-03T03:16:57;102163.98;;;11.99;23.76
71222;BME280;58965;59.324;18.268;2022-09-03T03:19:23;102165.34;;;11.92;23.76
71222;BME280;58965;59.324;18.268;2022-09-03T03:21:49;102165.37;;;11.64;23.90
71222;BME280;58965;59.324;18.268;2022-09-03T03:24:13;102164.67;;;12.05;23.78
71222;BME280;58965;59.324;18.268;2022-09-03T03:26:38;102163.60;;;11.87;23.96
71222;BME280;58965;59.324;18.268;2022-09-03T03:29:03;102165.16;;;11.97;23.78
71222;BME280;58965;59.324;18.268;2022-09-03T03:31:28;102166.16;;;11.94;23.97
71222;BME280;58965;59.324;18.268;2022-09-03T03:33:55;102164.15;;;12.39;23.51
71222;BME280;58965;59.324;18.268;2022-09-03T03:36:19;102157.60;;;12.72;23.23
71222;BME280;58965;59.324;18.268;2022-09-03T03:38:44;102162.51;;;11.93;23.80
71222;BME280;58965;59.324;18.268;2022-09-03T03:41:09;102159.75;;;12.14;23.74
71222;BME280;58965;59.324;18.268;2022-09-03T03:43:34;102157.26;;;12.21;23.63
71222;BME280;58965;59.324;18.268;2022-09-03T03:45:59;102160.40;;;12.21;23.91
71222;BME280;58965;59.324;18.268;2022-09-03T03:48:24;102158.52;;;11.95;23.91
71222;BME280;58965;59.324;18.268;2022-09-03T03:50:49;102155.06;;;12.10;23.93
71222;BME280;58965;59.324;18.268;2022-09-03T03:53:14;102150.68;;;12.64;23.97
71222;BME280;58965;59.324;18.268;2022-09-03T03:55:39;102152.63;;;11.87;23.85
71222;BME280;58965;59.324;18.268;2022-09-03T03:58:04;102154.63;;;11.61;24.02
71222;BME280;58965;59.324;18.268;2022-09-03T04:00:29;102154.93;;;11.26;24.11
71222;BME280;58965;59.324;18.268;2022-09-03T04:02:54;102151.73;;;11.96;23.88
71222;BME280;58965;59.324;18.268;2022-09-03T04:05:20;102153.19;;;12.02;24.12
71222;BME280;58965;59.324;18.268;2022-09-03T04:07:45;102156.02;;;11.99;24.22
71222;BME280;58965;59.324;18.268;2022-09-03T04:10:10;102157.47;;;11.84;24.02
71222;BME280;58965;59.324;18.268;2022-09-03T04:12:35;102155.83;;;11.49;24.46
71222;BME280;58965;59.324;18.268;2022-09-03T04:15:00;102156.28;;;12.06;24.09
71222;BME280;58965;59.324;18.268;2022-09-03T04:17:26;102153.89;;;12.22;24.32
71222;BME280;58965;59.324;18.268;2022-09-03T04:19:50;102153.70;;;11.77;24.26
71222;BME280;58965;59.324;18.268;2022-09-03T04:22:15;102152.70;;;12.26;24.46
71222;BME280;58965;59.324;18.268;2022-09-03T04:24:40;102154.88;;;12.34;24.28
71222;BME280;58965;59.324;18.268;2022-09-03T04:27:06;102156.88;;;11.76;24.39
71222;BME280;58965;59.324;18.268;2022-09-03T04:29:31;102153.17;;;11.59;24.45
71222;BME280;58965;59.324;18.268;2022-09-03T04:31:56;102154.63;;;12.18;24.50
71222;BME280;58965;59.324;18.268;2022-09-03T04:34:21;102157.16;;;11.80;24.56
71222;BME280;58965;59.324;18.268;2022-09-03T04:36:46;102162.13;;;12.15;24.50
71222;BME280;58965;59.324;18.268;2022-09-03T04:39:11;102157.46;;;11.83;24.80
71222;BME280;58965;59.324;18.268;2022-09-03T04:41:36;102161.21;;;12.11;24.51
71222;BME280;58965;59.324;18.268;2022-09-03T04:44:01;102156.73;;;11.87;24.58
71222;BME280;58965;59.324;18.268;2022-09-03T04:46:28;102161.66;;;11.67;24.66
71222;BME280;58965;59.324;18.268;2022-09-03T04:48:53;102162.24;;;11.93;24.84
71222;BME280;58965;59.324;18.268;2022-09-03T04:51:19;102163.70;;;12.02;24.65
71222;BME280;58965;59.324;18.268;2022-09-03T04:53:43;102164.52;;;12.67;24.56
71222;BME280;58965;59.324;18.268;2022-09-03T04:56:12;102166.49;;;11.73;24.88
71222;BME280;58965;59.324;18.268;2022-09-03T04:58:32;102166.97;;;12.25;24.90
71222;BME280;58965;59.324;18.268;2022-09-03T05:00:57;102164.88;;;11.28;24.99
71222;BME280;58965;59.324;18.268;2022-09-03T05:03:22;102163.30;;;12.08;24.84
71222;BME280;58965;59.324;18.268;2022-09-03T05:05:52;102158.66;;;12.45;24.97
71222;BME280;58965;59.324;18.268;2022-09-03T05:08:12;102159.68;;;12.09;24.99
71222;BME280;58965;59.324;18.268;2022-09-03T05:10:37;102158.14;;;12.75;24.77
71222;BME280;58965;59.324;18.268;2022-09-03T05:13:04;102159.31;;;12.66;25.02
71222;BME280;58965;59.324;18.268;2022-09-03T05:15:29;102158.69;;;12.17;25.08
71222;BME280;58965;59.324;18.268;2022-09-03T05:17:57;102159.21;;;11.60;25.27
71222;BME280;58965;59.324;18.268;2022-09-03T05:20:18;102163.07;;;12.28;25.18
71222;BME280;58965;59.324;18.268;2022-09-03T05:22:43;102164.66;;;11.86;25.28
71222;BME280;58965;59.324;18.268;2022-09-03T05:25:08;102167.82;;;11.28;25.58
71222;BME280;58965;59.324;18.268;2022-09-03T05:27:33;102173.78;;;12.06;25.38
71222;BME280;58965;59.324;18.268;2022-09-03T05:29:58;102174.12;;;12.86;25.15
71222;BME280;58965;59.324;18.268;2022-09-03T05:32:23;102170.73;;;12.08;25.22
71222;BME280;58965;59.324;18.268;2022-09-03T05:34:49;102172.38;;;12.17;25.04
71222;BME280;58965;59.324;18.268;2022-09-03T05:37:13;102174.79;;;11.75;25.32
71222;BME280;58965;59.324;18.268;2022-09-03T05:39:39;102173.96;;;12.80;25.19
71222;BME280;58965;59.324;18.268;2022-09-03T05:42:04;102173.71;;;11.60;25.32
71222;BME280;58965;59.324;18.268;2022-09-03T05:44:29;102172.19;;;12.54;24.99
71222;BME280;58965;59.324;18.268;2022-09-03T05:46:54;102176.89;;;12.67;24.97
71222;BME280;58965;59.324;18.268;2022-09-03T05:49:19;102172.79;;;12.61;24.86
71222;BME280;58965;59.324;18.268;2022-09-03T05:51:44;102172.15;;;12.88;24.81
71222;BME280;58965;59.324;18.268;2022-09-03T05:54:09;102172.19;;;13.17;24.72
71222;BME280;58965;59.324;18.268;2022-09-03T05:56:36;102173.06;;;12.47;25.27
71222;BME280;58965;59.324;18.268;2022-09-03T05:59:01;102173.44;;;12.55;25.09
71222;BME280;58965;59.324;18.268;2022-09-03T06:01:25;102168.55;;;12.74;24.92
71222;BME280;58965;59.324;18.268;2022-09-03T06:03:54;102169.44;;;12.51;25.08
71222;BME280;58965;59.324;18.268;2022-09-03T06:06:15;102168.57;;;12.89;25.00
71222;BME280;58965;59.324;18.268;2022-09-03T06:08:40;102168.74;;;12.65;24.98
71222;BME280;58965;59.324;18.268;2022-09-03T06:11:06;102169.11;;;12.64;24.94
71222;BME280;58965;59.324;18.268;2022-09-03T06:13:30;102169.77;;;13.00;25.01
71222;BME280;58965;59.324;18.268;2022-09-03T06:15:55;102170.58;;;12.42;24.92
71222;BME280;58965;59.324;18.268;2022-09-03T06:18:20;102170.82;;;12.93;24.82
71222;BME280;58965;59.324;18.268;2022-09-03T06:20:53;102174.85;;;12.62;25.07
71222;BME280;58965;59.324;18.268;2022-09-03T06:23:10;102176.97;;;12.35;25.01
71222;BME280;58965;59.324;18.268;2022-09-03T06:25:35;102177.18;;;12.79;24.99
71222;BME280;58965;59.324;18.268;2022-09-03T06:28:01;102178.89;;;13.05;24.84
71222;BME280;58965;59.324;18.268;2022-09-03T06:30:25;102181.66;;;13.30;24.82
71222;BME280;58965;59.324;18.268;2022-09-03T06:32:50;102185.09;;;13.03;24.99
71222;BME280;58965;59.324;18.268;2022-09-03T06:35:16;102184.81;;;13.35;24.90
71222;BME280;58965;59.324;18.268;2022-09-03T06:37:42;102184.66;;;12.85;25.07
71222;BME280;58965;59.324;18.268;2022-09-03T06:40:07;102188.72;;;12.59;25.10
71222;BME280;58965;59.324;18.268;2022-09-03T06:42:31;102186.95;;;13.04;24.96
71222;BME280;58965;59.324;18.268;2022-09-03T06:44:56;102190.51;;;12.77;25.30
71222;BME280;58965;59.324;18.268;2022-09-03T06:47:21;102184.96;;;12.86;25.06
71222;BME280;58965;59.324;18.268;2022-09-03T06:49:47;102186.43;;;13.36;25.07
71222;BME280;58965;59.324;18.268;2022-09-03T06:52:11;102184.56;;;12.83;25.31
71222;BME280;58965;59.324;18.268;2022-09-03T06:54:36;102183.19;;;12.93;25.15
71222;BME280;58965;59.324;18.268;2022-09-03T06:57:01;102188.55;;;12.65;25.30
71222;BME280;58965;59.324;18.268;2022-09-03T06:59:27;102188.09;;;12.98;25.10
71222;BME280;58965;59.324;18.268;2022-09-03T07:01:51;102189.09;;;12.56;25.23
71222;BME280;58965;59.324;18.268;2022-09-03T07:04:17;102187.46;;;13.13;25.10
71222;BME280;58965;59.324;18.268;2022-09-03T07:06:42;102188.20;;;12.42;25.27
71222;BME280;58965;59.324;18.268;2022-09-03T07:09:08;102188.95;;;12.76;25.06
71222;BME280;58965;59.324;18.268;2022-09-03T07:11:33;102191.70;;;13.33;25.11
71222;BME280;58965;59.324;18.268;2022-09-03T07:13:58;102189.02;;;13.16;24.91
71222;BME280;58965;59.324;18.268;2022-09-03T07:16:23;102185.46;;;12.91;25.05
71222;BME280;58965;59.324;18.268;2022-09-03T07:18:49;102186.40;;;12.61;25.32
71222;BME280;58965;59.324;18.268;2022-09-03T07:21:14;102187.40;;;13.22;25.16
71222;BME280;58965;59.324;18.268;2022-09-03T07:23:38;102193.82;;;13.54;25.14
71222;BME280;58965;59.324;18.268;2022-09-03T07:26:05;102196.91;;;13.06;24.94
71222;BME280;58965;59.324;18.268;2022-09-03T07:28:28;102199.12;;;12.94;25.09
71222;BME280;58965;59.324;18.268;2022-09-03T07:30:53;102199.64;;;13.16;25.22
71222;BME280;58965;59.324;18.268;2022-09-03T07:33:18;102200.18;;;13.71;24.65
71222;BME280;58965;59.324;18.268;2022-09-03T07:35:43;102203.37;;;12.63;25.10
71222;BME280;58965;59.324;18.268;2022-09-03T07:38:08;102205.23;;;13.16;25.07
71222;BME280;58965;59.324;18.268;2022-09-03T07:40:33;102207.96;;;12.80;25.21
71222;BME280;58965;59.324;18.268;2022-09-03T07:42:58;102209.93;;;12.32;25.28
71222;BME280;58965;59.324;18.268;2022-09-03T07:45:23;102210.98;;;13.62;25.23
71222;BME280;58965;59.324;18.268;2022-09-03T07:47:49;102217.48;;;13.57;24.68
71222;BME280;58965;59.324;18.268;2022-09-03T07:50:13;102219.86;;;13.32;24.89
71222;BME280;58965;59.324;18.268;2022-09-03T07:52:38;102219.57;;;13.56;24.75
71222;BME280;58965;59.324;18.268;2022-09-03T07:55:04;102220.53;;;13.01;24.96
71222;BME280;58965;59.324;18.268;2022-09-03T07:57:28;102224.48;;;13.23;24.79
71222;BME280;58965;59.324;18.268;2022-09-03T07:59:53;102219.35;;;13.74;24.32
71222;BME280;58965;59.324;18.268;2022-09-03T08:02:19;102223.01;;;12.96;24.44
71222;BME280;58965;59.324;18.268;2022-09-03T08:04:44;102224.91;;;13.63;24.40
71222;BME280;58965;59.324;18.268;2022-09-03T08:07:09;102226.22;;;12.41;24.68
71222;BME280;58965;59.324;18.268;2022-09-03T08:09:34;102225.67;;;12.95;24.47
71222;BME280;58965;59.324;18.268;2022-09-03T08:11:59;102228.04;;;12.75;24.59
71222;BME280;58965;59.324;18.268;2022-09-03T08:14:24;102232.16;;;12.39;25.14
71222;BME280;58965;59.324;18.268;2022-09-03T08:16:49;102229.58;;;13.60;24.80
71222;BME280;58965;59.324;18.268;2022-09-03T08:19:15;102228.77;;;13.32;25.29
71222;BME280;58965;59.324;18.268;2022-09-03T08:21:40;102225.08;;;13.63;25.10
71222;BME280;58965;59.324;18.268;2022-09-03T08:24:05;102223.11;;;13.06;24.88
71222;BME280;58965;59.324;18.268;2022-09-03T08:26:31;102220.42;;;13.16;24.50
71222;BME280;58965;59.324;18.268;2022-09-03T08:28:54;102219.48;;;12.80;24.18
71222;BME280;58965;59.324;18.268;2022-09-03T08:31:21;102226.36;;;13.58;24.18
71222;BME280;58965;59.324;18.268;2022-09-03T08:33:47;102228.82;;;13.27;23.90
71222;BME280;58965;59.324;18.268;2022-09-03T08:36:11;102230.86;;;13.51;23.71
71222;BME280;58965;59.324;18.268;2022-09-03T08:38:35;102234.73;;;13.89;23.66
71222;BME280;58965;59.324;18.268;2022-09-03T08:41:03;102233.21;;;12.80;24.13
71222;BME280;58965;59.324;18.268;2022-09-03T08:43:25;102233.94;;;13.42;23.99
71222;BME280;58965;59.324;18.268;2022-09-03T08:45:50;102231.30;;;13.58;23.75
71222;BME280;58965;59.324;18.268;2022-09-03T08:48:20;102227.80;;;12.90;24.11
71222;BME280;58965;59.324;18.268;2022-09-03T08:50:43;102223.77;;;13.67;23.79
71222;BME280;58965;59.324;18.268;2022-09-03T08:53:10;102222.77;;;12.66;24.26
71222;BME280;58965;59.324;18.268;2022-09-03T08:55:34;102218.93;;;13.83;23.82
71222;BME280;58965;59.324;18.268;2022-09-03T08:58:02;102223.84;;;12.54;24.15
71222;BME280;58965;59.324;18.268;2022-09-03T09:00:21;102226.23;;;12.75;24.02
71222;BME280;58965;59.324;18.268;2022-09-03T09:02:57;102227.58;;;13.93;23.62
71222;BME280;58965;59.324;18.268;2022-09-03T09:05:15;102227.15;;;13.86;23.34
71222;BME280;58965;59.324;18.268;2022-09-03T09:07:41;102230.64;;;13.58;23.51
71222;BME280;58965;59.324;18.268;2022-09-03T09:10:09;102229.66;;;13.46;23.68
71222;BME280;58965;59.324;18.268;2022-09-03T09:12:32;102229.99;;;13.98;23.63
71222;BME280;58965;59.324;18.268;2022-09-03T09:15:03;102228.68;;;14.13;23.36
71222;BME280;58965;59.324;18.268;2022-09-03T09:17:35;102234.14;;;13.60;23.46
71222;BME280;58965;59.324;18.268;2022-09-03T09:19:49;102234.59;;;12.91;23.62
71222;BME280;58965;59.324;18.268;2022-09-03T09:22:10;102237.32;;;13.62;23.26
71222;BME280;58965;59.324;18.268;2022-09-03T09:24:37;102235.75;;;12.62;23.71
71222;BME280;58965;59.324;18.268;2022-09-03T09:26:59;102237.66;;;13.39;23.36
71222;BME280;58965;59.324;18.268;2022-09-03T09:29:22;102239.29;;;13.35;23.27
71222;BME280;58965;59.324;18.268;2022-09-03T09:31:48;102239.26;;;13.58;23.07
71222;BME280;58965;59.324;18.268;2022-09-03T09:34:12;102236.68;;;12.92;23.16
71222;BME280;58965;59.324;18.268;2022-09-03T09:36:43;102233.72;;;13.39;22.98
71222;BME280;58965;59.324;18.268;2022-09-03T09:39:07;102230.31;;;12.74;22.89
71222;BME280;58965;59.324;18.268;2022-09-03T09:41:27;102229.02;;;13.49;22.76
71222;BME280;58965;59.324;18.268;2022-09-03T09:43:59;102231.82;;;13.65;22.73
71222;BME280;58965;59.324;18.268;2022-09-03T09:46:20;102234.15;;;13.65;22.53
71222;BME280;58965;59.324;18.268;2022-09-03T09:48:48;102232.43;;;13.37;22.63
71222;BME280;58965;59.324;18.268;2022-09-03T09:51:10;102233.04;;;13.20;22.47
71222;BME280;58965;59.324;18.268;2022-09-03T09:53:33;102231.21;;;13.62;22.42
71222;BME280;58965;59.324;18.268;2022-09-03T09:55:58;102230.23;;;13.60;22.30
71222;BME280;58965;59.324;18.268;2022-09-03T09:58:24;102232.57;;;13.57;22.21
71222;BME280;58965;59.324;18.268;2022-09-03T10:00:57;102230.18;;;14.11;21.63
71222;BME280;58965;59.324;18.268;2022-09-03T10:03:13;102232.23;;;13.60;22.06
71222;BME280;58965;59.324;18.268;2022-09-03T10:05:38;102230.18;;;13.85;22.17
71222;BME280;58965;59.324;18.268;2022-09-03T10:08:06;102229.67;;;13.79;21.71
71222;BME280;58965;59.324;18.268;2022-09-03T10:10:29;102230.85;;;13.95;21.67
71222;BME280;58965;59.324;18.268;2022-09-03T10:12:57;102231.60;;;14.23;21.46
71222;BME280;58965;59.324;18.268;2022-09-03T10:15:24;102232.43;;;13.80;21.75
71222;BME280;58965;59.324;18.268;2022-09-03T10:17:54;102233.09;;;13.61;21.86
71222;BME280;58965;59.324;18.268;2022-09-03T10:20:11;102231.96;;;13.59;21.92
71222;BME280;58965;59.324;18.268;2022-09-03T10:22:39;102229.89;;;14.54;21.70
71222;BME280;58965;59.324;18.268;2022-09-03T10:24:59;102229.66;;;13.84;21.74
71222;BME280;58965;59.324;18.268;2022-09-03T10:27:24;102227.45;;;13.34;22.03
71222;BME280;58965;59.324;18.268;2022-09-03T10:29:49;102222.07;;;13.35;22.03
71222;BME280;58965;59.324;18.268;2022-09-03T10:32:22;102218.02;;;13.66;22.11
71222;BME280;58965;59.324;18.268;2022-09-03T10:34:45;102216.00;;;14.40;21.85
71222;BME280;58965;59.324;18.268;2022-09-03T10:37:17;102213.31;;;13.11;22.34
71222;BME280;58965;59.324;18.268;2022-09-03T10:39:39;102216.40;;;13.64;21.93
71222;BME280;58965;59.324;18.268;2022-09-03T10:42:04;102216.13;;;13.21;22.11
71222;BME280;58965;59.324;18.268;2022-09-03T10:44:30;102218.39;;;13.53;21.98
71222;BME280;58965;59.324;18.268;2022-09-03T10:46:54;102219.12;;;13.95;22.11
71222;BME280;58965;59.324;18.268;2022-09-03T10:49:50;102222.94;;;13.89;21.99
71222;BME280;58965;59.324;18.268;2022-09-03T10:51:39;102222.90;;;13.79;21.37
71222;BME280;58965;59.324;18.268;2022-09-03T10:54:15;102225.47;;;13.82;21.83
71222;BME280;58965;59.324;18.268;2022-09-03T10:56:31;102224.07;;;13.90;21.56
71222;BME280;58965;59.324;18.268;2022-09-03T10:58:59;102223.07;;;13.95;21.69
71222;BME280;58965;59.324;18.268;2022-09-03T11:01:23;102221.62;;;13.81;21.42
71222;BME280;58965;59.324;18.268;2022-09-03T11:03:44;102221.59;;;13.74;21.76
71222;BME280;58965;59.324;18.268;2022-09-03T11:06:09;102222.18;;;13.39;21.63
71222;BME280;58965;59.324;18.268;2022-09-03T11:08:35;102219.12;;;13.64;21.44
71222;BME280;58965;59.324;18.268;2022-09-03T11:11:06;102221.38;;;13.65;21.36
71222;BME280;58965;59.324;18.268;2022-09-03T11:13:25;102218.59;;;13.99;21.27
71222;BME280;58965;59.324;18.268;2022-09-03T11:15:50;102218.72;;;14.06;21.45
71222;BME280;58965;59.324;18.268;2022-09-03T11:18:17;102218.19;;;13.71;21.57
71222;BME280;58965;59.324;18.268;2022-09-03T11:20:37;102215.70;;;13.66;21.34
71222;BME280;58965;59.324;18.268;2022-09-03T11:23:03;102214.87;;;13.67;20.89
71222;BME280;58965;59.324;18.268;2022-09-03T11:25:30;102213.76;;;13.42;21.16
71222;BME280;58965;59.324;18.268;2022-09-03T11:27:58;102212.92;;;13.76;21.07
71222;BME280;58965;59.324;18.268;2022-09-03T11:30:23;102213.74;;;13.81;20.71
71222;BME280;58965;59.324;18.268;2022-09-03T11:32:49;102213.92;;;13.48;21.10
71222;BME280;58965;59.324;18.268;2022-09-03T11:35:13;102215.04;;;12.76;21.38
71222;BME280;58965;59.324;18.268;2022-09-03T11:37:32;102212.12;;;13.82;21.14
71222;BME280;58965;59.324;18.268;2022-09-03T11:40:02;102212.80;;;13.02;21.94
71222;BME280;58965;59.324;18.268;2022-09-03T11:42:27;102210.04;;;13.51;21.32
71222;BME280;58965;59.324;18.268;2022-09-03T11:44:50;102208.83;;;14.18;20.88
71222;BME280;58965;59.324;18.268;2022-09-03T11:47:15;102209.50;;;12.96;21.09
71222;BME280;58965;59.324;18.268;2022-09-03T11:49:44;102208.94;;;13.65;20.99
71222;BME280;58965;59.324;18.268;2022-09-03T11:52:04;102207.44;;;13.14;21.50
71222;BME280;58965;59.324;18.268;2022-09-03T11:54:31;102203.75;;;13.46;21.26
71222;BME280;58965;59.324;18.268;2022-09-03T11:57:12;102202.36;;;13.53;21.14
71222;BME280;58965;59.324;18.268;2022-09-03T11:59:21;102202.93;;;13.20;20.92
71222;BME280;58965;59.324;18.268;2022-09-03T12:01:48;102203.00;;;13.16;20.77
71222;BME280;58965;59.324;18.268;2022-09-03T12:04:12;102202.82;;;13.03;21.13
71222;BME280;58965;59.324;18.268;2022-09-03T12:07:25;102204.03;;;12.43;21.37
71222;BME280;58965;59.324;18.268;2022-09-03T12:09:07;102206.96;;;13.29;21.51
71222;BME280;58965;59.324;18.268;2022-09-03T12:11:33;102206.09;;;12.96;21.81
71222;BME280;58965;59.324;18.268;2022-09-03T12:13:54;102209.46;;;12.64;22.22
71222;BME280;58965;59.324;18.268;2022-09-03T12:16:36;102211.13;;;12.60;22.17
71222;BME280;58965;59.324;18.268;2022-09-03T12:18:40;102203.91;;;13.39;21.63
71222;BME280;58965;59.324;18.268;2022-09-03T12:21:06;102200.88;;;13.71;20.76
71222;BME280;58965;59.324;18.268;2022-09-03T12:23:31;102197.77;;;13.90;20.53
71222;BME280;58965;59.324;18.268;2022-09-03T12:25:54;102196.68;;;14.14;20.52
71222;BME280;58965;59.324;18.268;2022-09-03T12:28:22;102200.35;;;13.73;20.65
71222;BME280;58965;59.324;18.268;2022-09-03T12:30:44;102198.71;;;13.81;21.13